الصفحة الرئيسية
METAR-TAF:

METAR-TAF

مطار :

Tongatapu, تونجا

دائرة عرض: 21-14S, خط طول: 175-09W, ارتفاع: 38 متر

مراقبة الطقس الحالي

تاريخ ووقت الإصدار 18 دقيقة قبل الساعة 05:00UTC
ريح 7 عقدة من الشمال/الشمال الشرقي
درجة الحرارة 28°درجة مئوية
الرطوبة 89%
ضغط 1011 hPa
الرؤية 10 كم أو أكثر
غيوم قليلة على ارتفاع 1600 قدم
غيوم مفككة على ارتفاع 29000 قدم

METAR: NFTF 250500Z 03007KT 9999 FEW016 BKN290 28/26 Q1011

زمن: 18:18 (05:18 UTC)

توقعات

تاريخ ووقت الإصدار 5ساعات و 58 دقيقة قبل الساعة 23:20UTC
التوقعات صالحة من25 الساعة 00 UTC إلى 25 الساعة 24 UTC
ريح 12 عقدة من الشرق/الشمال الشرقي
الرؤية 10 كم أو أكثر
غيوم قليلة على ارتفاع 900 قدم
غيوم متفرقة على ارتفاع 1500 قدم
نظرية الاحتمالات 40% :
مؤقت
من 25 الساعة 00 UTC إلى 25 الساعة 06 UTC
الرؤية: 8000 متر
غيوم مفككة على ارتفاع 1500 قدم
زخات من المطر
نظرية الاحتمالات 40% :
مؤقت
من 25 الساعة 18 UTC إلى 25 الساعة 24 UTC
الرؤية: 5000 متر
غيوم قليلة على ارتفاع 1700 قدم, مزنة ركامية.
عاصفة رعدية, مطر,

TAF: NFTF 242320Z 2500/2524 06012KT 9999 FEW009 SCT015 PROB40 TEMPO 2500/2506 8000 SHRA BKN015 PROB40 TEMPO 2518/2524 5000 TSRA FEW017CB

أرصاد الطقس والتوقعات من أكثر من 4000 مطار (تقارير الطقس للمطار METAR والتنبؤ بالطقس بالمطارTAF).

المحطات المتاحة هي النقط الصفراء والحمراء على الخريطة.

حرك المؤشر فوق النقطة لمعرفة اسم المحطة.

ثم انقر لمعرفة أرصاد وتوقعات الطقس.

لتغيير الخارطة: اضغط على الأزرار الخضراء مع رمز الصليب الأسود للتكبير. على الزر الأخضر مع شرطة للتصغير، أو على الأسهم الخضراء للخرائط المجاورة.


METAR-TAF: